Terminal Aerodrome Forecast
Issued by NWS

Home | Current Version | Previous Version | Graphics & Text | Print | Product List | Glossary On
Versions: 1 2 3 4 5 6 7 8 9 10 11 12 13 14 15 16 17 18 19 20
253
FTUS43 KABR 241122
TAFMBG
TAF
KMBG 241122Z 2412/2512 VRB06KT 6SM BR BKN150
      TEMPO 2413/2415 4SM BR
     FM241500 01009KT P6SM BKN060
     FM250200 VRB06KT P6SM FEW150=

USA.gov is the U.S. government's official web portal to all federal, state and local government web resources and services.